Time;durP1;ratioP1;P1;durP2;ratioP2;P2;SDS_P1;SDS_P2;PMS_P1;PMS_P2;Temp;Humidity;BMP_temperature;BMP_pressure;BME280_temperature;BME280_humidity;BME280_pressure;Samples;Min_cycle;Max_cycle;Signal;HPM_P1;HPM_P2
2023/07/28 00:01:32;;;;;;;5.53;3.70;;;;;;;;;;5052143;28;20383;-51
2023/07/28 00:03:58;;;;;;;5.80;3.90;;;;;;;;;;5050997;28;20467;-52
2023/07/28 00:06:24;;;;;;;8.93;3.70;;;;;;;;;;5049652;28;20385;-50
2023/07/28 00:08:50;;;;;;;7.20;3.70;;;;;;;;;;5052037;28;20437;-49
2023/07/28 00:11:16;;;;;;;9.80;3.53;;;;;;;;;;5051707;28;20825;-52
2023/07/28 00:13:43;;;;;;;4.30;3.97;;;;;;;;;;5051859;28;20425;-52
2023/07/28 00:16:10;;;;;;;6.10;4.80;;;;;;;;;;5051865;28;20445;-48
2023/07/28 00:18:36;;;;;;;3.80;3.40;;;;;;;;;;5051590;28;20379;-52
2023/07/28 00:21:02;;;;;;;6.30;4.03;;;;;;;;;;5051606;28;20409;-50
2023/07/28 00:23:28;;;;;;;6.70;3.67;;;;;;;;;;5047882;28;20386;-51
2023/07/28 00:25:54;;;;;;;5.33;3.60;;;;;;;;;;5051741;28;20399;-51
2023/07/28 00:28:20;;;;;;;4.50;3.60;;;;;;;;;;5051551;28;20432;-51
2023/07/28 00:30:49;;;;;;;4.13;3.83;;;;;;;;;;5050876;28;20505;-51
2023/07/28 00:33:16;;;;;;;4.80;3.60;;;;;;;;;;5051653;28;20416;-50
2023/07/28 00:35:42;;;;;;;6.20;4.30;;;;;;;;;;5051680;28;20384;-51
2023/07/28 00:38:07;;;;;;;5.73;3.97;;;;;;;;;;5051587;28;20413;-50
2023/07/28 00:40:33;;;;;;;3.63;3.33;;;;;;;;;;5051304;28;20447;-51
2023/07/28 00:42:59;;;;;;;3.90;3.50;;;;;;;;;;5051515;28;20413;-49
2023/07/28 00:45:26;;;;;;;5.70;2.87;;;;;;;;;;5050890;28;20478;-49
2023/07/28 00:47:52;;;;;;;6.40;3.73;;;;;;;;;;5051623;28;20391;-52
2023/07/28 00:50:18;;;;;;;3.20;3.00;;;;;;;;;;5050936;28;20501;-52
2023/07/28 00:52:46;;;;;;;6.43;3.57;;;;;;;;;;5051476;28;20404;-52
2023/07/28 00:55:12;;;;;;;3.60;3.30;;;;;;;;;;5051409;28;20373;-51
2023/07/28 00:57:39;;;;;;;5.80;3.43;;;;;;;;;;5044297;28;20377;-51
2023/07/28 01:00:05;;;;;;;5.27;3.30;;;;;;;;;;5050693;28;20433;-51
2023/07/28 01:02:31;;;;;;;2.87;2.70;;;;;;;;;;5050841;28;20471;-49
2023/07/28 01:04:58;;;;;;;3.97;3.00;;;;;;;;;;5050600;28;20417;-50
2023/07/28 01:07:31;;;;;;;5.27;3.40;;;;;;;;;;5045628;28;20418;-52
2023/07/28 01:10:03;;;;;;;8.23;3.60;;;;;;;;;;5050816;28;20965;-52
2023/07/28 01:12:28;;;;;;;8.27;3.50;;;;;;;;;;5050886;28;20919;-51
2023/07/28 01:14:54;;;;;;;3.43;3.23;;;;;;;;;;5052805;28;20502;-50
2023/07/28 01:17:23;;;;;;;3.90;3.60;;;;;;;;;;5055230;28;20423;-49
2023/07/28 01:19:49;;;;;;;9.33;3.50;;;;;;;;;;5055052;28;20924;-52
2023/07/28 01:22:15;;;;;;;5.57;3.83;;;;;;;;;;5055188;28;20441;-50
2023/07/28 01:25:03;;;;;;;3.27;3.07;;;;;;;;;;5054988;28;20885;-50
2023/07/28 01:27:29;;;;;;;4.00;3.00;;;;;;;;;;5049811;28;20421;-51
2023/07/28 01:29:55;;;;;;;2.90;2.60;;;;;;;;;;5054792;28;20472;-52
2023/07/28 01:32:21;;;;;;;7.13;3.10;;;;;;;;;;5053305;28;20440;-51
2023/07/28 01:34:47;;;;;;;8.50;3.23;;;;;;;;;;5051670;28;20893;-50
2023/07/28 01:37:13;;;;;;;3.57;3.27;;;;;;;;;;5055105;28;20438;-51
2023/07/28 01:39:39;;;;;;;3.43;3.07;;;;;;;;;;5054663;28;20425;-46
2023/07/28 01:42:05;;;;;;;3.60;3.30;;;;;;;;;;5055103;28;20410;-50
2023/07/28 01:44:31;;;;;;;2.60;2.40;;;;;;;;;;5055297;28;20388;-50
2023/07/28 01:46:57;;;;;;;4.17;3.07;;;;;;;;;;5053123;28;20852;-46
2023/07/28 01:49:23;;;;;;;3.40;3.10;;;;;;;;;;5054512;28;20442;-46
2023/07/28 01:51:49;;;;;;;3.43;3.20;;;;;;;;;;5054321;28;20436;-46
2023/07/28 01:54:14;;;;;;;2.97;2.77;;;;;;;;;;5054729;28;20459;-47
2023/07/28 01:56:40;;;;;;;6.00;3.33;;;;;;;;;;5054594;28;20381;-46
2023/07/28 01:59:06;;;;;;;3.80;3.50;;;;;;;;;;5043510;28;20424;-49
2023/07/28 02:01:32;;;;;;;3.20;3.00;;;;;;;;;;5044325;28;20440;-46
2023/07/28 02:03:58;;;;;;;3.20;2.90;;;;;;;;;;5054138;28;20467;-46
2023/07/28 02:06:24;;;;;;;3.57;3.13;;;;;;;;;;5047329;28;20393;-47
2023/07/28 02:08:50;;;;;;;2.90;2.70;;;;;;;;;;5054331;28;20383;-46
2023/07/28 02:11:16;;;;;;;4.30;3.23;;;;;;;;;;5057780;28;20860;-47
2023/07/28 02:13:42;;;;;;;3.50;3.20;;;;;;;;;;5054711;28;20732;-48
2023/07/28 02:16:08;;;;;;;3.47;3.17;;;;;;;;;;5054114;28;20783;-50
2023/07/28 02:18:34;;;;;;;5.70;2.63;;;;;;;;;;5054015;28;20829;-46
2023/07/28 02:21:00;;;;;;;4.83;2.77;;;;;;;;;;5046958;28;20441;-48
2023/07/28 02:23:26;;;;;;;2.33;2.13;;;;;;;;;;5053767;28;20465;-46
2023/07/28 02:25:52;;;;;;;6.40;2.20;;;;;;;;;;5053472;28;20392;-46
2023/07/28 02:28:17;;;;;;;5.10;2.40;;;;;;;;;;5053893;28;20481;-46
2023/07/28 02:30:43;;;;;;;2.40;2.30;;;;;;;;;;5053610;28;20438;-47
2023/07/28 02:33:09;;;;;;;2.80;1.90;;;;;;;;;;5053794;28;20379;-49
2023/07/28 02:35:36;;;;;;;2.30;1.60;;;;;;;;;;5053681;28;20384;-46
2023/07/28 02:38:02;;;;;;;3.50;1.97;;;;;;;;;;5053610;28;20932;-50
2023/07/28 02:40:28;;;;;;;1.80;1.70;;;;;;;;;;5053512;28;20747;-49
2023/07/28 02:42:54;;;;;;;1.70;1.60;;;;;;;;;;5053878;28;20423;-46
2023/07/28 02:45:20;;;;;;;2.10;1.97;;;;;;;;;;5053486;28;20832;-46
2023/07/28 02:47:46;;;;;;;1.70;1.60;;;;;;;;;;5053730;28;20413;-46
2023/07/28 02:50:12;;;;;;;2.90;2.20;;;;;;;;;;5053109;28;20438;-47
2023/07/28 02:52:38;;;;;;;1.90;1.80;;;;;;;;;;5053472;28;20399;-46
2023/07/28 02:55:04;;;;;;;1.97;1.87;;;;;;;;;;5053379;28;20480;-48
2023/07/28 02:57:30;;;;;;;3.10;1.87;;;;;;;;;;5053396;28;20380;-48
2023/07/28 02:59:56;;;;;;;2.13;1.53;;;;;;;;;;5052971;28;20842;-45
2023/07/28 03:02:22;;;;;;;3.63;2.13;;;;;;;;;;5053278;28;20409;-46
2023/07/28 03:04:48;;;;;;;4.37;2.00;;;;;;;;;;5053192;28;20437;-47
2023/07/28 03:07:15;;;;;;;1.93;1.83;;;;;;;;;;5051460;28;20398;-46
2023/07/28 03:09:41;;;;;;;2.03;1.80;;;;;;;;;;5052960;28;20408;-48
2023/07/28 03:12:07;;;;;;;1.80;1.70;;;;;;;;;;5053101;28;20457;-50
2023/07/28 03:14:33;;;;;;;1.97;1.87;;;;;;;;;;5052841;28;20389;-49
2023/07/28 03:16:59;;;;;;;2.40;1.70;;;;;;;;;;5053032;28;20470;-46
2023/07/28 03:19:25;;;;;;;1.70;1.60;;;;;;;;;;5052849;28;20416;-46
2023/07/28 03:21:51;;;;;;;6.33;1.57;;;;;;;;;;5052845;28;20389;-46
2023/07/28 03:24:17;;;;;;;1.50;1.40;;;;;;;;;;5052925;28;20410;-47
2023/07/28 03:26:43;;;;;;;4.87;1.63;;;;;;;;;;5052902;28;20437;-46
2023/07/28 03:29:09;;;;;;;3.40;1.60;;;;;;;;;;5052752;28;20426;-48
2023/07/28 03:31:35;;;;;;;2.10;1.80;;;;;;;;;;5052430;28;20448;-50
2023/07/28 03:34:02;;;;;;;1.70;1.60;;;;;;;;;;5052702;28;20433;-48
2023/07/28 03:36:28;;;;;;;3.03;1.30;;;;;;;;;;5052396;28;20391;-47
2023/07/28 03:38:55;;;;;;;4.00;1.40;;;;;;;;;;5052144;28;20459;-48
2023/07/28 03:41:21;;;;;;;2.37;1.50;;;;;;;;;;5052385;28;20511;-45
2023/07/28 03:43:47;;;;;;;1.20;1.10;;;;;;;;;;5052221;28;20478;-47
2023/07/28 03:46:13;;;;;;;2.70;1.37;;;;;;;;;;5052608;28;20405;-45
2023/07/28 03:48:39;;;;;;;15.03;1.83;;;;;;;;;;5044401;28;20913;-46
2023/07/28 03:51:05;;;;;;;2.40;1.20;;;;;;;;;;5050401;28;20833;-48
2023/07/28 03:53:31;;;;;;;3.33;1.50;;;;;;;;;;5052257;28;20415;-50
2023/07/28 03:55:57;;;;;;;2.30;1.63;;;;;;;;;;5047318;28;20412;-46
2023/07/28 03:58:25;;;;;;;1.80;1.70;;;;;;;;;;5052223;28;20872;-47
2023/07/28 04:00:53;;;;;;;2.17;1.50;;;;;;;;;;5052181;28;20850;-46
2023/07/28 04:03:19;;;;;;;9.30;2.07;;;;;;;;;;5050620;28;20401;-46
2023/07/28 04:05:44;;;;;;;1.60;1.50;;;;;;;;;;5052266;28;20936;-47
2023/07/28 04:08:10;;;;;;;1.60;1.50;;;;;;;;;;5052182;28;20763;-46
2023/07/28 04:10:36;;;;;;;1.47;1.37;;;;;;;;;;5051533;28;20444;-48
2023/07/28 04:13:02;;;;;;;3.67;1.20;;;;;;;;;;5052073;28;20414;-50
2023/07/28 04:15:28;;;;;;;1.30;1.20;;;;;;;;;;5044005;28;20431;-46
2023/07/28 04:17:54;;;;;;;6.37;1.20;;;;;;;;;;5050665;28;20381;-47
2023/07/28 04:20:20;;;;;;;9.73;2.00;;;;;;;;;;5051640;28;20437;-46
2023/07/28 04:22:46;;;;;;;3.10;1.37;;;;;;;;;;5052002;28;20405;-46
2023/07/28 04:25:12;;;;;;;1.93;1.47;;;;;;;;;;5051756;28;20394;-46
2023/07/28 04:27:38;;;;;;;1.30;1.20;;;;;;;;;;5051959;28;20384;-46
2023/07/28 04:30:05;;;;;;;2.20;1.57;;;;;;;;;;5051558;28;20492;-47
2023/07/28 04:32:31;;;;;;;1.33;1.23;;;;;;;;;;5050382;28;20395;-46
2023/07/28 04:34:57;;;;;;;1.63;1.53;;;;;;;;;;5051734;28;20415;-48
2023/07/28 04:37:23;;;;;;;1.50;1.40;;;;;;;;;;5051691;28;20411;-49
2023/07/28 04:39:50;;;;;;;9.03;1.70;;;;;;;;;;5051271;28;20400;-45
2023/07/28 04:42:16;;;;;;;1.60;1.50;;;;;;;;;;5051594;28;20412;-46
2023/07/28 04:44:42;;;;;;;3.40;1.33;;;;;;;;;;5051703;28;20433;-46
2023/07/28 04:47:09;;;;;;;1.60;1.50;;;;;;;;;;5050330;28;20386;-46
2023/07/28 04:49:35;;;;;;;1.60;1.50;;;;;;;;;;5051057;28;20463;-50
2023/07/28 04:52:01;;;;;;;2.50;1.47;;;;;;;;;;5051292;28;20432;-46
2023/07/28 04:54:27;;;;;;;8.27;1.97;;;;;;;;;;5051369;28;20397;-45
2023/07/28 04:56:54;;;;;;;1.50;1.40;;;;;;;;;;5046358;28;20389;-46
2023/07/28 04:59:20;;;;;;;1.50;1.40;;;;;;;;;;5047509;28;20582;-46
2023/07/28 05:01:46;;;;;;;4.50;1.60;;;;;;;;;;5051409;28;20411;-46
2023/07/28 05:04:12;;;;;;;1.70;1.60;;;;;;;;;;5051518;28;21017;-46
2023/07/28 05:06:38;;;;;;;1.70;1.60;;;;;;;;;;5051246;28;20920;-48
2023/07/28 05:09:04;;;;;;;1.70;1.60;;;;;;;;;;5051234;28;20735;-48
2023/07/28 05:11:30;;;;;;;8.13;1.97;;;;;;;;;;5051003;28;20783;-46
2023/07/28 05:13:57;;;;;;;1.30;1.10;;;;;;;;;;5050076;28;20837;-49
2023/07/28 05:16:23;;;;;;;1.80;1.60;;;;;;;;;;5051280;28;20915;-46
2023/07/28 05:18:49;;;;;;;4.40;1.40;;;;;;;;;;5051329;28;20377;-46
2023/07/28 05:21:15;;;;;;;4.30;1.50;;;;;;;;;;5051484;28;20917;-46
2023/07/28 05:23:45;;;;;;;1.77;1.37;;;;;;;;;;5045008;28;20419;-46
2023/07/28 05:26:12;;;;;;;2.27;1.20;;;;;;;;;;5051215;28;20474;-47
2023/07/28 05:28:39;;;;;;;1.60;1.50;;;;;;;;;;5044363;28;20874;-46
2023/07/28 05:31:05;;;;;;;1.70;1.60;;;;;;;;;;5050913;28;20436;-45
2023/07/28 05:33:33;;;;;;;2.40;1.47;;;;;;;;;;5051159;28;20976;-46
2023/07/28 05:36:00;;;;;;;1.50;1.40;;;;;;;;;;5051137;28;20413;-46
2023/07/28 05:38:26;;;;;;;1.60;1.50;;;;;;;;;;5051118;28;20457;-47
2023/07/28 05:41:00;;;;;;;5.40;2.73;;;;;;;;;;5051059;28;20944;-48
2023/07/28 05:43:27;;;;;;;1.67;1.57;;;;;;;;;;5049722;28;20420;-47
2023/07/28 05:45:53;;;;;;;7.30;1.80;;;;;;;;;;5051011;28;20417;-46
2023/07/28 05:48:19;;;;;;;2.30;1.40;;;;;;;;;;5050877;28;20420;-48
2023/07/28 05:50:45;;;;;;;31.37;3.77;;;;;;;;;;5050486;28;20449;-48
2023/07/28 05:53:11;;;;;;;5.43;1.83;;;;;;;;;;5050972;28;20411;-47
2023/07/28 05:55:37;;;;;;;14.80;2.13;;;;;;;;;;5050834;28;20424;-48
2023/07/28 05:58:05;;;;;;;1.73;1.63;;;;;;;;;;5050996;28;20398;-50
2023/07/28 06:00:31;;;;;;;3.20;1.63;;;;;;;;;;5050952;28;20465;-46
2023/07/28 06:02:59;;;;;;;3.93;1.73;;;;;;;;;;5054531;28;20716;-46
2023/07/28 06:05:25;;;;;;;2.03;1.70;;;;;;;;;;5053393;28;20393;-47
2023/07/28 06:07:51;;;;;;;3.17;1.90;;;;;;;;;;5053834;28;20567;-47
2023/07/28 06:10:17;;;;;;;1.60;1.50;;;;;;;;;;5052416;28;20506;-46
2023/07/28 06:12:43;;;;;;;2.00;1.90;;;;;;;;;;5052860;28;20393;-47
2023/07/28 06:15:09;;;;;;;2.00;1.90;;;;;;;;;;5050706;28;21007;-48
2023/07/28 06:17:35;;;;;;;4.50;1.93;;;;;;;;;;5054261;28;20470;-48
2023/07/28 06:20:03;;;;;;;3.30;1.90;;;;;;;;;;5053993;28;20846;-50
2023/07/28 06:22:29;;;;;;;3.97;2.50;;;;;;;;;;5054183;28;20520;-51
2023/07/28 06:24:55;;;;;;;4.13;2.53;;;;;;;;;;5054156;28;20526;-46
2023/07/28 06:27:21;;;;;;;2.33;2.10;;;;;;;;;;5054638;28;20392;-46
2023/07/28 06:29:47;;;;;;;3.50;3.20;;;;;;;;;;5053628;28;20413;-46
2023/07/28 06:32:13;;;;;;;6.37;3.50;;;;;;;;;;5053844;28;20473;-46
2023/07/28 06:34:39;;;;;;;4.60;2.90;;;;;;;;;;5046308;28;20456;-47
2023/07/28 06:37:05;;;;;;;5.67;2.93;;;;;;;;;;5049388;28;20404;-47
2023/07/28 06:39:31;;;;;;;4.40;2.60;;;;;;;;;;5052685;28;20415;-47
2023/07/28 06:41:57;;;;;;;2.80;2.27;;;;;;;;;;5053702;28;20411;-48
2023/07/28 06:44:23;;;;;;;3.40;2.50;;;;;;;;;;5053611;28;20416;-50
2023/07/28 06:46:50;;;;;;;4.03;2.10;;;;;;;;;;5053202;28;20408;-49
2023/07/28 06:49:18;;;;;;;4.00;1.90;;;;;;;;;;5051658;28;20503;-47
2023/07/28 06:51:45;;;;;;;4.53;2.27;;;;;;;;;;5050882;28;20455;-47
2023/07/28 06:54:12;;;;;;;2.47;2.27;;;;;;;;;;5052622;28;20482;-46
2023/07/28 06:56:38;;;;;;;2.33;2.23;;;;;;;;;;5051988;28;20433;-46
2023/07/28 06:59:06;;;;;;;5.97;3.10;;;;;;;;;;5053485;28;20415;-46
2023/07/28 07:01:32;;;;;;;12.60;4.73;;;;;;;;;;5053302;28;20418;-46
2023/07/28 07:03:58;;;;;;;9.60;5.13;;;;;;;;;;5053267;28;20911;-46
2023/07/28 07:06:24;;;;;;;12.07;6.50;;;;;;;;;;5052412;28;20422;-47
2023/07/28 07:08:50;;;;;;;13.43;7.03;;;;;;;;;;5053468;28;20435;-46
2023/07/28 07:11:16;;;;;;;14.60;7.50;;;;;;;;;;5048660;28;20460;-47
2023/07/28 07:13:42;;;;;;;11.90;7.00;;;;;;;;;;5053021;28;20404;-50
2023/07/28 07:16:34;;;;;;;15.57;7.37;;;;;;;;;;5053125;28;20391;-46
2023/07/28 07:19:00;;;;;;;12.53;7.13;;;;;;;;;;5047844;28;20403;-46
2023/07/28 07:21:28;;;;;;;10.87;6.47;;;;;;;;;;5051960;28;20443;-46
2023/07/28 07:23:54;;;;;;;11.63;6.17;;;;;;;;;;5052976;28;20408;-46
2023/07/28 07:26:21;;;;;;;13.83;7.47;;;;;;;;;;5052803;28;20389;-49
2023/07/28 07:28:48;;;;;;;10.90;7.20;;;;;;;;;;5046988;28;20903;-47
2023/07/28 07:31:15;;;;;;;8.17;5.83;;;;;;;;;;5052586;28;20471;-46
2023/07/28 07:33:47;;;;;;;10.83;5.60;;;;;;;;;;5051959;28;20888;-47
2023/07/28 07:36:14;;;;;;;10.23;6.13;;;;;;;;;;5052798;28;20410;-50
2023/07/28 07:38:40;;;;;;;10.20;6.20;;;;;;;;;;5052878;28;20808;-50
2023/07/28 07:41:10;;;;;;;11.57;6.00;;;;;;;;;;5052223;28;20455;-47
2023/07/28 07:43:36;;;;;;;16.73;6.47;;;;;;;;;;5053100;28;20477;-51
2023/07/28 07:46:03;;;;;;;12.40;6.43;;;;;;;;;;5052632;28;20511;-52
2023/07/28 07:48:30;;;;;;;10.33;6.20;;;;;;;;;;5051740;28;20398;-50
2023/07/28 07:50:56;;;;;;;12.37;7.00;;;;;;;;;;5051962;28;20441;-51
2023/07/28 07:53:22;;;;;;;8.20;6.30;;;;;;;;;;5052250;28;20420;-49
2023/07/28 07:55:49;;;;;;;8.70;5.90;;;;;;;;;;5049948;28;20416;-52
2023/07/28 07:58:15;;;;;;;13.43;5.97;;;;;;;;;;5049232;28;20407;-51
2023/07/28 08:00:43;;;;;;;10.70;6.37;;;;;;;;;;5052090;28;20441;-51
2023/07/28 08:03:11;;;;;;;11.80;7.57;;;;;;;;;;5051625;28;20498;-51
2023/07/28 08:05:37;;;;;;;9.40;5.70;;;;;;;;;;5052046;28;20773;-49
2023/07/28 08:08:05;;;;;;;16.00;10.10;;;;;;;;;;5052234;28;20452;-49
2023/07/28 08:10:32;;;;;;;20.23;11.03;;;;;;;;;;5051720;28;20524;-52
2023/07/28 08:12:59;;;;;;;26.40;12.70;;;;;;;;;;5047139;28;20409;-51
2023/07/28 08:15:25;;;;;;;21.93;12.87;;;;;;;;;;5049518;28;20413;-52
2023/07/28 08:17:52;;;;;;;26.97;13.73;;;;;;;;;;5052110;28;20401;-51
2023/07/28 08:20:18;;;;;;;27.37;12.83;;;;;;;;;;5052131;28;20999;-51
2023/07/28 08:22:44;;;;;;;20.63;11.30;;;;;;;;;;5051670;28;20470;-51
2023/07/28 08:25:10;;;;;;;26.97;11.67;;;;;;;;;;5051662;28;20383;-51
2023/07/28 08:27:37;;;;;;;12.83;8.80;;;;;;;;;;5051772;28;20410;-52
2023/07/28 08:30:05;;;;;;;11.20;6.90;;;;;;;;;;5050975;28;20846;-50
2023/07/28 08:32:33;;;;;;;12.07;6.07;;;;;;;;;;5051706;28;20481;-50
2023/07/28 08:34:59;;;;;;;10.17;6.00;;;;;;;;;;5049839;28;20401;-51
2023/07/28 08:37:25;;;;;;;8.83;5.80;;;;;;;;;;5049945;28;20402;-51
2023/07/28 08:39:51;;;;;;;5.73;4.30;;;;;;;;;;5051412;28;20420;-52
2023/07/28 08:42:17;;;;;;;12.23;3.83;;;;;;;;;;5051577;28;20402;-52
2023/07/28 08:44:45;;;;;;;19.03;4.70;;;;;;;;;;5051259;28;20377;-50
2023/07/28 08:47:11;;;;;;;6.57;3.30;;;;;;;;;;5051594;28;20444;-49
2023/07/28 08:49:38;;;;;;;4.83;2.90;;;;;;;;;;5052731;28;20480;-49
2023/07/28 08:52:04;;;;;;;6.30;3.00;;;;;;;;;;5051391;28;20467;-49
2023/07/28 08:54:32;;;;;;;2.90;2.67;;;;;;;;;;5050289;28;20468;-52
2023/07/28 08:56:58;;;;;;;3.93;3.47;;;;;;;;;;5045971;28;20394;-50
2023/07/28 08:59:27;;;;;;;3.60;3.30;;;;;;;;;;5050921;28;20439;-52
2023/07/28 09:01:53;;;;;;;6.43;3.10;;;;;;;;;;5051268;28;20750;-51
2023/07/28 09:04:20;;;;;;;3.90;2.90;;;;;;;;;;5051191;28;20419;-49
2023/07/28 09:06:48;;;;;;;3.53;3.17;;;;;;;;;;5051418;28;20511;-52
2023/07/28 09:09:14;;;;;;;3.37;3.07;;;;;;;;;;5051342;28;20552;-50
2023/07/28 09:11:46;;;;;;;3.40;2.83;;;;;;;;;;5050896;28;20461;-51
2023/07/28 09:14:16;;;;;;;3.87;3.07;;;;;;;;;;5049452;28;20896;-51
2023/07/28 09:16:42;;;;;;;3.33;3.03;;;;;;;;;;5041704;28;20436;-51
2023/07/28 09:19:09;;;;;;;4.83;2.93;;;;;;;;;;5046850;28;20432;-52
2023/07/28 09:21:35;;;;;;;5.97;3.57;;;;;;;;;;5049999;28;20421;-51
2023/07/28 09:24:01;;;;;;;3.67;3.37;;;;;;;;;;5050838;28;20449;-51
2023/07/28 09:26:38;;;;;;;3.20;3.00;;;;;;;;;;5050704;28;20416;-51
2023/07/28 09:29:13;;;;;;;8.00;2.43;;;;;;;;;;5051280;28;20506;-51
2023/07/28 09:31:39;;;;;;;3.30;1.90;;;;;;;;;;5036063;28;20937;-51
2023/07/28 09:34:10;;;;;;;1.50;1.40;;;;;;;;;;5051416;28;20442;-49
2023/07/28 09:36:38;;;;;;;1.80;1.70;;;;;;;;;;5053859;28;20478;-51
2023/07/28 09:39:06;;;;;;;3.03;1.73;;;;;;;;;;5036537;28;20769;-52
2023/07/28 09:41:33;;;;;;;3.67;1.80;;;;;;;;;;5053383;28;20890;-51
2023/07/28 09:43:59;;;;;;;3.83;1.67;;;;;;;;;;5054546;28;20526;-51
2023/07/28 09:46:28;;;;;;;2.07;1.80;;;;;;;;;;5054801;28;20413;-51
2023/07/28 09:48:56;;;;;;;2.23;2.00;;;;;;;;;;5043524;28;20453;-51
2023/07/28 09:51:27;;;;;;;2.20;2.00;;;;;;;;;;5041676;28;20546;-49
2023/07/28 09:53:55;;;;;;;3.00;2.37;;;;;;;;;;5054646;28;20417;-50
2023/07/28 09:56:22;;;;;;;3.70;2.70;;;;;;;;;;5054456;28;20470;-50
2023/07/28 09:58:51;;;;;;;5.40;2.73;;;;;;;;;;5054640;28;20458;-50
2023/07/28 10:01:17;;;;;;;2.80;2.60;;;;;;;;;;5054359;28;20412;-50
2023/07/28 10:03:44;;;;;;;4.47;3.90;;;;;;;;;;5054543;28;20413;-50
2023/07/28 10:06:11;;;;;;;14.23;2.90;;;;;;;;;;5054546;28;20450;-50
2023/07/28 10:08:38;;;;;;;4.73;3.60;;;;;;;;;;5054426;28;20416;-49
2023/07/28 10:11:04;;;;;;;3.90;3.50;;;;;;;;;;5053782;28;20483;-50
2023/07/28 10:13:40;;;;;;;7.73;3.73;;;;;;;;;;5054273;28;20445;-50
2023/07/28 10:16:08;;;;;;;3.20;2.97;;;;;;;;;;5053926;28;20905;-50
2023/07/28 10:18:34;;;;;;;3.53;2.87;;;;;;;;;;5054242;28;20466;-52
2023/07/28 10:21:08;;;;;;;3.30;3.10;;;;;;;;;;5053989;28;20425;-52
2023/07/28 10:23:38;;;;;;;6.53;2.90;;;;;;;;;;5053748;28;20413;-52
2023/07/28 10:26:07;;;;;;;3.00;2.80;;;;;;;;;;5054138;28;20446;-51
2023/07/28 10:28:43;;;;;;;2.83;2.60;;;;;;;;;;5054117;28;20421;-52
2023/07/28 10:31:11;;;;;;;3.87;3.60;;;;;;;;;;5053795;28;20568;-51
2023/07/28 10:33:42;;;;;;;2.80;2.60;;;;;;;;;;5053922;28;20875;-52
2023/07/28 10:36:11;;;;;;;3.03;2.73;;;;;;;;;;5053804;28;20401;-49
2023/07/28 10:38:38;;;;;;;3.37;3.00;;;;;;;;;;5053919;28;20412;-51
2023/07/28 10:41:11;;;;;;;3.27;2.83;;;;;;;;;;5052421;28;20440;-52
2023/07/28 10:43:37;;;;;;;3.03;2.80;;;;;;;;;;5053605;28;20489;-51
2023/07/28 10:46:05;;;;;;;5.17;4.67;;;;;;;;;;5053451;28;20402;-51
2023/07/28 10:48:31;;;;;;;6.23;5.63;;;;;;;;;;5053499;28;20420;-52
2023/07/28 10:50:57;;;;;;;8.53;5.47;;;;;;;;;;5053342;28;20469;-49
2023/07/28 10:53:24;;;;;;;4.57;4.17;;;;;;;;;;5053467;28;20407;-51
2023/07/28 10:55:50;;;;;;;4.83;4.50;;;;;;;;;;5050516;28;20496;-50
2023/07/28 10:58:16;;;;;;;4.60;4.27;;;;;;;;;;5053530;28;20510;-50
2023/07/28 11:00:42;;;;;;;4.30;3.90;;;;;;;;;;5053310;28;20429;-51
2023/07/28 11:03:10;;;;;;;4.00;3.60;;;;;;;;;;5053421;28;20959;-51
2023/07/28 11:05:37;;;;;;;4.03;3.70;;;;;;;;;;5053324;28;20421;-51
2023/07/28 11:08:03;;;;;;;7.03;3.73;;;;;;;;;;5053315;28;20420;-50
2023/07/28 11:10:30;;;;;;;7.87;4.20;;;;;;;;;;5053057;28;20437;-52
2023/07/28 11:12:57;;;;;;;3.93;3.73;;;;;;;;;;5053345;28;20479;-51
2023/07/28 11:15:24;;;;;;;3.50;3.27;;;;;;;;;;5053115;28;20499;-52
2023/07/28 11:17:51;;;;;;;3.57;3.37;;;;;;;;;;5053444;28;20432;-52
2023/07/28 11:20:24;;;;;;;3.70;3.43;;;;;;;;;;5053232;28;20423;-50
2023/07/28 11:22:57;;;;;;;5.20;4.00;;;;;;;;;;5053032;28;20401;-50
2023/07/28 11:25:24;;;;;;;4.03;3.17;;;;;;;;;;5052925;28;20439;-51
2023/07/28 11:27:51;;;;;;;3.43;3.13;;;;;;;;;;5053469;28;20947;-51
2023/07/28 11:30:18;;;;;;;3.70;3.17;;;;;;;;;;5052702;28;20919;-50
2023/07/28 11:32:46;;;;;;;3.50;3.30;;;;;;;;;;5052910;28;20413;-52
2023/07/28 11:35:14;;;;;;;3.33;3.10;;;;;;;;;;5051273;28;20428;-51
2023/07/28 11:37:41;;;;;;;3.20;3.00;;;;;;;;;;5044788;28;20417;-50
2023/07/28 11:40:12;;;;;;;3.10;2.90;;;;;;;;;;5052465;28;20563;-52
2023/07/28 11:42:39;;;;;;;3.57;3.10;;;;;;;;;;5052528;28;20412;-51
2023/07/28 11:45:06;;;;;;;2.60;2.50;;;;;;;;;;5052524;28;20406;-50
2023/07/28 11:47:32;;;;;;;3.10;2.80;;;;;;;;;;5052630;28;20415;-52
2023/07/28 11:49:58;;;;;;;2.77;2.57;;;;;;;;;;5050655;28;20539;-52
2023/07/28 11:52:37;;;;;;;2.60;2.40;;;;;;;;;;5052349;28;20490;-52
2023/07/28 11:55:05;;;;;;;3.10;2.83;;;;;;;;;;5047483;28;20411;-51
2023/07/28 11:57:32;;;;;;;2.47;2.33;;;;;;;;;;5045726;28;20430;-51
2023/07/28 11:59:58;;;;;;;3.77;3.40;;;;;;;;;;5050557;28;20433;-52
2023/07/28 12:02:27;;;;;;;2.97;2.87;;;;;;;;;;5052375;28;20842;-50
2023/07/28 12:04:57;;;;;;;7.67;3.80;;;;;;;;;;5052202;28;20405;-52
2023/07/28 12:07:30;;;;;;;2.40;2.30;;;;;;;;;;5052174;28;20424;-51
2023/07/28 12:09:59;;;;;;;2.80;2.60;;;;;;;;;;5052053;28;20437;-50
2023/07/28 12:12:26;;;;;;;3.30;3.00;;;;;;;;;;5052281;28;20461;-50
2023/07/28 12:14:52;;;;;;;4.23;2.80;;;;;;;;;;5052156;28;20478;-51
2023/07/28 12:17:19;;;;;;;2.60;2.40;;;;;;;;;;5051520;28;20929;-50
2023/07/28 12:20:10;;;;;;;2.30;2.10;;;;;;;;;;5043026;28;20945;-51
2023/07/28 12:22:36;;;;;;;5.53;2.70;;;;;;;;;;5049198;28;20838;-50
2023/07/28 12:25:02;;;;;;;4.10;2.27;;;;;;;;;;5039985;28;20525;-48
2023/07/28 12:27:28;;;;;;;2.33;2.23;;;;;;;;;;5044524;28;20780;-50
2023/07/28 12:29:54;;;;;;;1.97;1.87;;;;;;;;;;5046205;28;20791;-50
2023/07/28 12:32:20;;;;;;;7.33;2.57;;;;;;;;;;5051713;28;20468;-50
2023/07/28 12:34:46;;;;;;;8.33;2.57;;;;;;;;;;5049970;28;20453;-49
2023/07/28 12:37:12;;;;;;;2.20;2.00;;;;;;;;;;5045883;28;20433;-51
2023/07/28 12:39:51;;;;;;;2.97;2.77;;;;;;;;;;5052522;28;20783;-52
2023/07/28 12:42:17;;;;;;;2.53;2.40;;;;;;;;;;5043574;28;20441;-49
2023/07/28 12:44:43;;;;;;;2.67;2.47;;;;;;;;;;5048420;28;20438;-52
2023/07/28 12:47:09;;;;;;;1.70;1.60;;;;;;;;;;5045291;28;20407;-52
2023/07/28 12:49:36;;;;;;;2.17;1.80;;;;;;;;;;5043963;28;20485;-49
2023/07/28 12:52:12;;;;;;;4.40;2.00;;;;;;;;;;5050281;28;20813;-50
2023/07/28 12:54:39;;;;;;;14.27;2.47;;;;;;;;;;5040110;28;20432;-51
2023/07/28 12:57:08;;;;;;;3.57;1.43;;;;;;;;;;5043627;28;20408;-49
2023/07/28 12:59:34;;;;;;;1.70;1.60;;;;;;;;;;5051428;28;20698;-52
2023/07/28 13:02:00;;;;;;;2.63;2.07;;;;;;;;;;5051305;28;20496;-50
2023/07/28 13:04:26;;;;;;;1.70;1.60;;;;;;;;;;5046938;28;20445;-51
2023/07/28 13:06:52;;;;;;;1.50;1.40;;;;;;;;;;5041968;28;20422;-51
2023/07/28 13:09:18;;;;;;;2.20;2.10;;;;;;;;;;5048983;28;20436;-52
2023/07/28 13:11:44;;;;;;;2.70;2.50;;;;;;;;;;5055322;28;20457;-50
2023/07/28 13:14:10;;;;;;;6.30;2.37;;;;;;;;;;5053997;28;20443;-52
2023/07/28 13:16:37;;;;;;;3.63;1.87;;;;;;;;;;5055304;28;20412;-51
2023/07/28 13:19:03;;;;;;;2.10;2.00;;;;;;;;;;5055299;28;20420;-52
2023/07/28 13:21:30;;;;;;;3.03;2.40;;;;;;;;;;5055034;28;20896;-52
2023/07/28 13:23:56;;;;;;;2.20;2.10;;;;;;;;;;5054073;28;20417;-51
2023/07/28 13:26:22;;;;;;;3.77;2.30;;;;;;;;;;5055270;28;20397;-52
2023/07/28 13:28:48;;;;;;;2.90;2.70;;;;;;;;;;5055283;28;20405;-50
2023/07/28 13:31:16;;;;;;;3.50;3.30;;;;;;;;;;5054858;28;20453;-51
2023/07/28 13:33:43;;;;;;;4.90;2.90;;;;;;;;;;5055423;28;20420;-51
2023/07/28 13:36:09;;;;;;;8.10;5.93;;;;;;;;;;5055132;28;20412;-51
2023/07/28 13:38:36;;;;;;;8.40;5.97;;;;;;;;;;5055104;28;20496;-52
2023/07/28 13:41:05;;;;;;;2.60;2.17;;;;;;;;;;5054755;28;20441;-52
2023/07/28 13:43:31;;;;;;;2.27;2.07;;;;;;;;;;5055995;28;20835;-50
2023/07/28 13:45:57;;;;;;;2.90;2.20;;;;;;;;;;5054719;28;20411;-52
2023/07/28 13:48:24;;;;;;;2.13;2.03;;;;;;;;;;5055134;28;20401;-50
2023/07/28 13:50:49;;;;;;;3.60;3.30;;;;;;;;;;5054401;28;20555;-50
2023/07/28 13:53:15;;;;;;;5.63;2.50;;;;;;;;;;5054953;28;20850;-52
2023/07/28 13:55:42;;;;;;;7.93;2.00;;;;;;;;;;5054690;28;20439;-50
2023/07/28 13:58:08;;;;;;;2.53;2.33;;;;;;;;;;5054801;28;21067;-51
2023/07/28 14:00:34;;;;;;;2.37;2.00;;;;;;;;;;5046998;28;20434;-53
2023/07/28 14:03:00;;;;;;;4.03;1.90;;;;;;;;;;5038894;28;20419;-52
2023/07/28 14:05:26;;;;;;;5.67;1.70;;;;;;;;;;5054424;28;20394;-52
2023/07/28 14:07:53;;;;;;;3.00;1.90;;;;;;;;;;5055047;28;20480;-52
2023/07/28 14:10:20;;;;;;;1.80;1.70;;;;;;;;;;5054171;28;20655;-52
2023/07/28 14:12:49;;;;;;;1.80;1.70;;;;;;;;;;5054432;28;20500;-51
2023/07/28 14:15:14;;;;;;;2.60;1.70;;;;;;;;;;5054173;28;20455;-51
2023/07/28 14:17:40;;;;;;;2.90;2.23;;;;;;;;;;5054342;28;20441;-52
2023/07/28 14:20:08;;;;;;;4.30;1.90;;;;;;;;;;5054095;28;20433;-51
2023/07/28 14:22:35;;;;;;;2.80;2.60;;;;;;;;;;5053636;28;20508;-52
2023/07/28 14:25:01;;;;;;;4.93;2.03;;;;;;;;;;5054169;28;20808;-52
2023/07/28 14:27:26;;;;;;;4.40;1.57;;;;;;;;;;5054184;28;20769;-50
2023/07/28 14:29:52;;;;;;;6.73;3.00;;;;;;;;;;5053882;28;20524;-52
2023/07/28 14:32:18;;;;;;;1.87;1.77;;;;;;;;;;5053963;28;20466;-51
2023/07/28 14:34:44;;;;;;;1.70;1.60;;;;;;;;;;5054300;28;20420;-52
2023/07/28 14:37:11;;;;;;;5.43;1.97;;;;;;;;;;5053912;28;20490;-52
2023/07/28 14:39:37;;;;;;;2.37;2.00;;;;;;;;;;5053670;28;20474;-46